createdAt,value
2023-04-20T00:00:40.512Z,101696.88
2023-04-20T00:03:22.094Z,101697.94
2023-04-20T00:05:55.275Z,101686.88
2023-04-20T00:08:27.683Z,101699.75
2023-04-20T00:11:03.204Z,101697.94
2023-04-20T00:13:35.675Z,101703.19
2023-04-20T00:16:13.927Z,101702.75
2023-04-20T00:18:52.807Z,101690.59
2023-04-20T00:21:29.311Z,101690.50
2023-04-20T00:24:04.432Z,101684.69
2023-04-20T00:26:39.796Z,101688.16
2023-04-20T00:29:14.860Z,101686.84
2023-04-20T00:31:47.593Z,101688.47
2023-04-20T00:34:20.071Z,101692.50
2023-04-20T00:36:55.368Z,101690.56
2023-04-20T00:39:39.883Z,101695.91
2023-04-20T00:42:15.487Z,101694.59
2023-04-20T00:44:47.842Z,101682.09
2023-04-20T00:47:20.589Z,101688.63
2023-04-20T00:49:53.090Z,101687.31
2023-04-20T00:52:26.084Z,101688.16
2023-04-20T00:55:01.858Z,101677.72
2023-04-20T00:57:37.529Z,101683.56
2023-04-20T01:00:11.816Z,101680.03
2023-04-20T01:03:00.155Z,101675.09
2023-04-20T01:05:32.598Z,101677.53
2023-04-20T01:08:05.407Z,101672.78
2023-04-20T01:10:37.705Z,101673.72
2023-04-20T01:13:12.927Z,101670.38
2023-04-20T01:15:48.013Z,101678.06
2023-04-20T01:18:21.206Z,101671.41
2023-04-20T01:20:53.346Z,101664.88
2023-04-20T01:23:37.835Z,101668.25
2023-04-20T01:26:11.043Z,101672.09
2023-04-20T01:28:43.968Z,101661.00
2023-04-20T01:31:17.052Z,101662.22
2023-04-20T01:33:52.578Z,101670.94
2023-04-20T01:36:27.589Z,101676.03
2023-04-20T01:39:02.988Z,101671.31
2023-04-20T01:41:35.398Z,101662.22
2023-04-20T01:44:10.292Z,101662.59
2023-04-20T01:46:42.747Z,101662.16
2023-04-20T01:49:15.304Z,101658.41
2023-04-20T01:51:47.315Z,101651.94
2023-04-20T01:54:22.730Z,101660.03
2023-04-20T01:56:54.612Z,101662.22
2023-04-20T01:59:28.551Z,101654.03
2023-04-20T02:02:00.395Z,101658.84
2023-04-20T02:04:32.680Z,101658.84
2023-04-20T02:07:04.930Z,101655.75
2023-04-20T02:09:39.931Z,101662.03
2023-04-20T02:12:12.088Z,101663.53
2023-04-20T02:14:44.504Z,101660.25
2023-04-20T02:17:16.502Z,101664.25
2023-04-20T02:19:51.547Z,101658.97
2023-04-20T02:22:23.348Z,101665.56
2023-04-20T02:24:58.406Z,101664.22
2023-04-20T04:01:59.266Z,101675.19
2023-04-20T04:04:32.692Z,101675.78
2023-04-20T04:07:05.108Z,101673.75
2023-04-20T04:09:37.950Z,101676.41
2023-04-20T04:12:11.250Z,101682.38
2023-04-20T04:14:44.137Z,101679.81
2023-04-20T04:17:20.666Z,101681.00
2023-04-20T04:19:53.508Z,101683.56
2023-04-20T04:22:25.731Z,101687.66
2023-04-20T04:24:58.568Z,101688.78
2023-04-20T04:27:35.322Z,101688.78
2023-04-20T04:30:09.189Z,101698.28
2023-04-20T04:32:47.046Z,101700.13
2023-04-20T04:35:32.104Z,101695.72
2023-04-20T04:38:04.304Z,101691.69
2023-04-20T04:40:37.063Z,101697.63
2023-04-20T04:43:10.710Z,101689.50
2023-04-20T04:45:44.243Z,101699.34
2023-04-20T04:48:19.666Z,101702.97
2023-04-20T04:50:51.955Z,101704.81
2023-04-20T04:53:24.136Z,101718.16
2023-04-20T04:55:56.709Z,101716.81
2023-04-20T04:58:29.437Z,101716.09
2023-04-20T05:01:03.947Z,101722.94
2023-04-20T05:03:39.043Z,101721.63
2023-04-20T05:06:14.307Z,101708.00
2023-04-20T05:08:50.854Z,101708.38
2023-04-20T05:11:26.078Z,101701.69
2023-04-20T05:13:59.804Z,101708.16
2023-04-20T05:16:33.613Z,101715.22
2023-04-20T05:19:11.985Z,101729.66
2023-04-20T05:21:47.168Z,101731.59
2023-04-20T05:24:23.166Z,101718.72
2023-04-20T05:26:57.042Z,101718.38
2023-04-20T05:29:31.036Z,101717.88
2023-04-20T05:32:05.507Z,101723.34
2023-04-20T05:34:41.507Z,101711.69
2023-04-20T05:37:15.488Z,101721.69
2023-04-20T05:39:48.472Z,101730.09
2023-04-20T05:42:22.762Z,101729.09
2023-04-20T05:44:56.011Z,101728.63
2023-04-20T05:47:31.460Z,101742.59
2023-04-20T05:50:08.589Z,101750.13
2023-04-20T05:52:42.032Z,101748.69
2023-04-20T05:55:16.287Z,101734.50
2023-04-20T05:57:52.526Z,101733.97
2023-04-20T06:00:28.156Z,101742.28
2023-04-20T06:03:02.309Z,101750.25
2023-04-20T06:05:38.374Z,101741.03
2023-04-20T06:08:13.400Z,101736.28
2023-04-20T06:10:46.231Z,101746.19
2023-04-20T06:13:19.142Z,101756.16
2023-04-20T06:15:53.193Z,101755.28
2023-04-20T06:18:25.978Z,101753.59
2023-04-20T06:21:02.534Z,101753.97
2023-04-20T06:23:35.239Z,101752.72
2023-04-20T06:26:11.049Z,101764.53
2023-04-20T06:28:43.834Z,101761.25
2023-04-20T06:31:16.047Z,101762.84
2023-04-20T06:33:48.982Z,101776.09
2023-04-20T06:36:26.101Z,101773.31
2023-04-20T06:39:02.995Z,101770.63
2023-04-20T06:41:35.109Z,101761.38
2023-04-20T06:44:08.941Z,101775.75
2023-04-20T06:46:41.635Z,101770.50
2023-04-20T06:49:14.386Z,101768.78
2023-04-20T06:51:50.285Z,101782.19
2023-04-20T06:54:24.123Z,101767.81
2023-04-20T06:56:58.150Z,101774.50
2023-04-20T06:59:30.888Z,101766.72
2023-04-20T07:02:03.173Z,101762.69
2023-04-20T07:04:36.153Z,101754.50
2023-04-20T07:07:11.416Z,101755.69
2023-04-20T07:09:44.602Z,101769.66
2023-04-20T07:12:16.731Z,101770.66
2023-04-20T07:14:49.880Z,101778.06
2023-04-20T07:17:22.109Z,101770.47
2023-04-20T07:19:54.537Z,101775.25
2023-04-20T07:22:29.545Z,101780.16
2023-04-20T07:25:03.753Z,101787.19
2023-04-20T07:27:59.358Z,101796.75
2023-04-20T07:30:32.333Z,101789.25
2023-04-20T07:33:04.735Z,101790.97
2023-04-20T07:35:37.566Z,101793.09
2023-04-20T07:38:12.798Z,101797.53
2023-04-20T07:40:45.568Z,101796.00
2023-04-20T07:43:17.932Z,101797.66
2023-04-20T07:45:50.909Z,101805.91
2023-04-20T07:48:22.951Z,101805.50
2023-04-20T07:50:55.730Z,101807.09
2023-04-20T07:53:39.565Z,101803.56
2023-04-20T07:56:12.339Z,101803.13
2023-04-20T07:58:44.922Z,101807.44
2023-04-20T08:01:17.608Z,101800.16
2023-04-20T08:04:05.353Z,101810.91
2023-04-20T08:06:53.043Z,101813.25
2023-04-20T08:09:30.447Z,101810.19
2023-04-20T08:12:05.925Z,101805.44
2023-04-20T08:14:39.242Z,101804.34
2023-04-20T08:17:12.375Z,101803.09
2023-04-20T08:19:46.193Z,101804.59
2023-04-20T08:22:22.122Z,101805.03
2023-04-20T08:24:57.884Z,101809.28
2023-04-20T08:27:31.162Z,101803.75
2023-04-20T08:30:04.850Z,101802.34
2023-04-20T08:32:37.845Z,101815.66
2023-04-20T08:35:11.628Z,101820.56
2023-04-20T08:37:45.753Z,101812.88
2023-04-20T08:40:22.700Z,101819.03
2023-04-20T08:42:55.819Z,101809.94
2023-04-20T08:45:28.434Z,101815.97
2023-04-20T08:48:02.446Z,101826.53
2023-04-20T08:50:35.207Z,101821.28
2023-04-20T08:53:10.490Z,101821.31
2023-04-20T08:55:45.770Z,101821.78
2023-04-20T08:58:18.689Z,101823.97
2023-04-20T09:00:51.679Z,101824.09
2023-04-20T09:03:37.384Z,101814.41
2023-04-20T09:06:18.888Z,101808.91
2023-04-20T09:08:53.465Z,101820.88
2023-04-20T09:11:30.532Z,101810.69
2023-04-20T09:14:07.442Z,101808.91
2023-04-20T09:16:40.025Z,101808.09
2023-04-20T09:19:14.025Z,101816.94
2023-04-20T09:21:53.679Z,101822.81
2023-04-20T09:24:27.828Z,101822.59
2023-04-20T09:27:03.306Z,101812.38
2023-04-20T09:29:35.939Z,101809.94
2023-04-20T09:32:08.394Z,101810.41
2023-04-20T09:34:47.981Z,101809.50
2023-04-20T09:37:21.076Z,101818.00
2023-04-20T09:39:53.685Z,101809.53
2023-04-20T09:42:31.526Z,101813.34
2023-04-20T09:45:25.470Z,101808.13
2023-04-20T09:47:59.136Z,101806.75
2023-04-20T09:50:45.728Z,101806.72
2023-04-20T09:53:25.519Z,101804.06
2023-04-20T09:56:00.124Z,101799.06
2023-04-20T09:58:39.075Z,101795.69
2023-04-20T10:01:14.483Z,101804.31
2023-04-20T10:03:47.454Z,101800.91
2023-04-20T10:06:31.461Z,101798.50
2023-04-20T10:09:11.893Z,101794.00
2023-04-20T10:11:53.174Z,101794.94
2023-04-20T10:14:30.143Z,101796.41
2023-04-20T10:17:04.943Z,101796.59
2023-04-20T10:19:44.751Z,101785.22
2023-04-20T10:22:34.056Z,101790.16
2023-04-20T10:25:21.348Z,101794.97
2023-04-20T10:28:01.344Z,101796.44
2023-04-20T10:30:40.170Z,101794.44
2023-04-20T10:33:16.595Z,101785.34
2023-04-20T10:35:55.472Z,101791.63
2023-04-20T10:38:35.906Z,101791.91
2023-04-20T10:41:11.126Z,101786.28
2023-04-20T10:43:46.054Z,101771.19
2023-04-20T10:46:25.043Z,101772.81
2023-04-20T10:49:01.656Z,101766.94
2023-04-20T10:51:34.749Z,101765.63
2023-04-20T10:54:12.021Z,101758.38
2023-04-20T10:56:49.692Z,101762.78
2023-04-20T10:59:28.992Z,101761.97
2023-04-20T11:02:08.402Z,101761.53
2023-04-20T11:04:43.021Z,101765.53
2023-04-20T11:07:18.455Z,101756.88
2023-04-20T11:10:02.702Z,101761.59
2023-04-20T11:12:50.593Z,101756.81
2023-04-20T11:15:38.672Z,101751.59
2023-04-20T11:18:17.585Z,101753.88
2023-04-20T11:20:55.747Z,101747.25
2023-04-20T11:23:43.590Z,101754.78
2023-04-20T11:26:18.587Z,101747.16
2023-04-20T11:28:56.815Z,101753.91
2023-04-20T11:31:33.219Z,101752.63
2023-04-20T11:34:08.808Z,101748.84
2023-04-20T11:36:43.550Z,101745.81
2023-04-20T11:39:18.747Z,101748.72
2023-04-20T11:41:52.202Z,101747.91
2023-04-20T11:44:26.441Z,101735.84
2023-04-20T11:47:02.636Z,101729.09
2023-04-20T11:49:39.478Z,101732.44
2023-04-20T11:52:12.636Z,101733.13
2023-04-20T11:54:45.516Z,101730.69
2023-04-20T11:57:18.706Z,101724.00
2023-04-20T11:59:51.596Z,101727.97
2023-04-20T12:02:24.870Z,101721.56
2023-04-20T12:05:02.648Z,101720.28
2023-04-20T12:07:36.237Z,101722.25
2023-04-20T12:10:11.037Z,101720.31
2023-04-20T12:12:44.410Z,101719.50
2023-04-20T12:15:17.717Z,101716.00
2023-04-20T12:17:51.038Z,101720.31
2023-04-20T12:20:26.839Z,101714.78
2023-04-20T12:22:59.963Z,101720.88
2023-04-20T12:25:32.761Z,101707.44
2023-04-20T12:28:08.078Z,101713.84
2023-04-20T12:30:41.047Z,101708.16
2023-04-20T12:33:14.415Z,101704.72
2023-04-20T12:35:50.546Z,101701.00
2023-04-20T12:38:23.914Z,101696.28
2023-04-20T12:40:56.601Z,101693.06
2023-04-20T12:43:29.797Z,101692.41
2023-04-20T12:46:02.797Z,101690.38
2023-04-20T12:48:36.354Z,101684.63
2023-04-20T12:51:20.557Z,101682.41
2023-04-20T12:53:53.807Z,101669.22
2023-04-20T12:56:26.417Z,101663.88
2023-04-20T12:58:59.818Z,101663.53
2023-04-20T13:01:32.899Z,101674.88
2023-04-20T13:04:06.447Z,101662.50
2023-04-20T13:06:42.466Z,101670.78
2023-04-20T13:09:16.153Z,101664.53
2023-04-20T13:11:49.278Z,101663.88
2023-04-20T13:14:22.498Z,101657.91
2023-04-20T13:16:55.790Z,101655.34
2023-04-20T13:19:29.300Z,101650.72
2023-04-20T13:22:05.401Z,101657.00
2023-04-20T13:24:38.866Z,101652.59
2023-04-20T13:27:12.198Z,101650.31
2023-04-20T13:29:45.346Z,101647.25
2023-04-20T13:32:18.148Z,101653.69
2023-04-20T13:34:51.227Z,101639.28
2023-04-20T13:37:26.376Z,101635.56
2023-04-20T13:39:59.866Z,101642.69
2023-04-20T13:42:32.219Z,101634.19
2023-04-20T13:45:05.548Z,101637.38
2023-04-20T13:47:38.278Z,101632.28
2023-04-20T13:50:12.258Z,101632.09
2023-04-20T13:52:47.781Z,101636.13
2023-04-20T13:55:21.101Z,101629.09
2023-04-20T13:57:53.669Z,101627.56
2023-04-20T14:00:26.745Z,101620.97
2023-04-20T14:03:00.003Z,101620.09
2023-04-20T14:05:33.265Z,101629.72
2023-04-20T14:08:16.817Z,101619.06
2023-04-20T14:10:51.424Z,101611.13
2023-04-20T14:13:28.513Z,101616.72
2023-04-20T14:16:03.613Z,101607.38
2023-04-20T14:18:38.170Z,101608.25
2023-04-20T14:21:10.182Z,101610.41
2023-04-20T14:23:46.112Z,101600.22
2023-04-20T14:26:20.337Z,101600.38
2023-04-20T14:28:54.466Z,101599.88
2023-04-20T14:31:30.645Z,101596.09
2023-04-20T14:34:06.099Z,101599.09
2023-04-20T14:36:38.135Z,101594.78
2023-04-20T14:39:23.807Z,101588.16
2023-04-20T14:41:59.600Z,101581.50
2023-04-20T14:44:31.721Z,101590.66
2023-04-20T14:47:12.130Z,101580.38
2023-04-20T14:50:03.777Z,101573.34
2023-04-20T14:52:54.061Z,101570.41
2023-04-20T15:00:18.670Z,101563.88
2023-04-20T15:04:05.542Z,101556.56
2023-04-20T15:07:58.034Z,101558.25
2023-04-20T15:10:57.134Z,101557.22
2023-04-20T15:13:30.133Z,101558.81
2023-04-20T15:16:02.353Z,101554.25
2023-04-20T15:18:35.135Z,101556.56
2023-04-20T15:21:08.940Z,101557.34
2023-04-20T15:23:41.975Z,101556.69
2023-04-20T15:26:17.176Z,101556.84
2023-04-20T15:28:50.432Z,101556.56
2023-04-20T15:31:23.514Z,101556.84
2023-04-20T15:33:56.624Z,101561.38
2023-04-20T15:36:30.696Z,101554.38
2023-04-20T15:39:11.280Z,101552.25
2023-04-20T15:42:03.421Z,101550.28
2023-04-20T15:44:36.097Z,101546.22
2023-04-20T15:47:08.462Z,101548.78
2023-04-20T15:49:50.746Z,101547.75
2023-04-20T15:52:22.982Z,101547.75
2023-04-20T15:54:55.822Z,101551.31
2023-04-20T15:57:32.898Z,101547.56
2023-04-20T16:00:05.531Z,101546.00
2023-04-20T16:02:38.853Z,101546.09
2023-04-20T16:05:12.382Z,101545.28
2023-04-20T16:07:44.891Z,101549.88
2023-04-20T16:10:17.855Z,101542.81
2023-04-20T16:12:52.890Z,101549.25
2023-04-20T16:15:25.765Z,101540.81
2023-04-20T16:17:59.196Z,101547.50
2023-04-20T16:20:32.054Z,101545.41
2023-04-20T16:23:04.387Z,101548.13
2023-04-20T16:25:50.853Z,101546.44
2023-04-20T16:28:29.895Z,101546.59
2023-04-20T16:31:02.911Z,101548.31
2023-04-20T16:33:35.669Z,101550.44
2023-04-20T16:36:08.936Z,101557.25
2023-04-20T16:38:41.499Z,101545.69
2023-04-20T16:41:14.957Z,101552.06
2023-04-20T16:43:49.980Z,101548.13
2023-04-20T16:46:23.437Z,101543.59
2023-04-20T16:48:56.141Z,101538.00
2023-04-20T16:51:29.857Z,101547.28
2023-04-20T16:54:02.100Z,101547.38
2023-04-20T16:56:34.981Z,101544.84
2023-04-20T16:59:10.223Z,101541.13
2023-04-20T17:01:43.264Z,101534.06
2023-04-20T17:04:18.317Z,101541.00
2023-04-20T17:06:52.299Z,101547.28
2023-04-20T17:09:25.788Z,101544.97
2023-04-20T17:12:00.024Z,101546.22
2023-04-20T17:14:37.661Z,101551.25
2023-04-20T17:17:10.585Z,101559.34
2023-04-20T17:19:43.021Z,101564.22
2023-04-20T17:22:16.268Z,101561.16
2023-04-20T17:24:48.621Z,101567.53
2023-04-20T17:27:23.660Z,101561.28
2023-04-20T17:29:59.220Z,101563.31
2023-04-20T17:32:32.486Z,101556.44
2023-04-20T17:35:04.891Z,101563.38
2023-04-20T17:37:38.903Z,101565.44
2023-04-20T17:40:18.656Z,101560.56
2023-04-20T17:42:52.944Z,101562.44
2023-04-20T17:45:29.099Z,101561.09
2023-04-20T17:48:02.251Z,101559.56
2023-04-20T17:50:35.122Z,101558.09
2023-04-20T17:53:10.042Z,101561.69
2023-04-20T17:55:42.935Z,101558.66
2023-04-20T17:58:20.504Z,101565.75
2023-04-20T18:00:59.153Z,101567.59
2023-04-20T18:03:32.479Z,101571.19
2023-04-20T18:06:05.469Z,101585.19
2023-04-20T18:08:38.741Z,101575.75
2023-04-20T18:11:11.817Z,101579.81
2023-04-20T18:13:45.177Z,101579.09
2023-04-20T18:16:20.767Z,101579.63
2023-04-20T18:18:54.056Z,101579.97
2023-04-20T18:21:27.060Z,101578.13
2023-04-20T18:24:00.234Z,101587.09
2023-04-20T18:26:33.137Z,101588.59
2023-04-20T18:29:06.342Z,101595.03
2023-04-20T18:31:54.059Z,101592.84
2023-04-20T18:34:30.579Z,101590.63
2023-04-20T18:37:03.300Z,101589.78
2023-04-20T18:39:37.299Z,101593.31
2023-04-20T18:42:10.067Z,101600.28
2023-04-20T18:44:43.603Z,101593.50
2023-04-20T18:47:19.388Z,101592.69
2023-04-20T18:49:52.220Z,101602.63
2023-04-20T18:52:25.858Z,101598.22
2023-04-20T18:54:59.037Z,101597.56
2023-04-20T18:57:31.740Z,101595.50
2023-04-20T19:00:09.588Z,101599.25
2023-04-20T19:02:46.085Z,101603.97
2023-04-20T19:05:19.890Z,101595.84
2023-04-20T19:07:52.356Z,101598.91
2023-04-20T19:10:26.875Z,101601.94
2023-04-20T19:12:59.825Z,101599.56
2023-04-20T19:15:33.055Z,101601.78
2023-04-20T19:18:12.372Z,101598.38
2023-04-20T19:20:45.897Z,101600.56
2023-04-20T19:23:18.785Z,101598.22
2023-04-20T19:25:52.495Z,101601.78
2023-04-20T19:28:25.216Z,101600.25
2023-04-20T19:30:59.635Z,101596.50
2023-04-20T19:33:35.577Z,101599.03
2023-04-20T19:36:09.539Z,101597.34
2023-04-20T19:38:42.336Z,101595.50
2023-04-20T19:41:15.621Z,101595.84
2023-04-20T19:43:48.301Z,101603.91
2023-04-20T19:46:21.902Z,101602.91
2023-04-20T19:48:57.375Z,101599.38
2023-04-20T19:51:30.617Z,101604.25
2023-04-20T19:54:05.298Z,101604.09
2023-04-20T19:56:38.602Z,101608.69
2023-04-20T19:59:11.459Z,101607.59
2023-04-20T20:01:44.711Z,101607.44
2023-04-20T20:04:20.821Z,101604.19
2023-04-20T20:06:54.017Z,101597.94
2023-04-20T20:09:26.700Z,101600.66
2023-04-20T20:12:01.544Z,101600.31
2023-04-20T20:14:36.410Z,101609.75
2023-04-20T20:17:11.623Z,101602.31
2023-04-20T20:19:47.174Z,101606.53
2023-04-20T20:22:20.573Z,101608.88
2023-04-20T20:24:54.896Z,101603.78
2023-04-20T20:27:28.541Z,101608.88
2023-04-20T20:30:01.227Z,101603.75
2023-04-20T20:32:34.550Z,101606.63
2023-04-20T20:35:13.508Z,101613.06
2023-04-20T20:37:46.981Z,101612.69
2023-04-20T20:40:19.739Z,101619.84
2023-04-20T20:42:52.421Z,101613.91
2023-04-20T20:45:24.898Z,101612.69
2023-04-20T20:47:58.694Z,101610.16
2023-04-20T20:50:34.011Z,101616.25
2023-04-20T20:53:06.776Z,101610.84
2023-04-20T20:55:39.190Z,101614.22
2023-04-20T20:58:12.143Z,101611.19
2023-04-20T21:00:44.477Z,101609.81
2023-04-20T21:03:17.659Z,101613.91
2023-04-20T21:05:52.855Z,101614.59
2023-04-20T21:08:25.693Z,101612.53
2023-04-20T21:10:58.011Z,101607.28
2023-04-20T21:13:30.813Z,101610.78
2023-04-20T21:16:03.598Z,101607.69
2023-04-20T21:18:36.898Z,101614.28
2023-04-20T21:21:17.067Z,101600.72
2023-04-20T21:23:49.860Z,101604.78
2023-04-20T21:26:22.012Z,101603.16
2023-04-20T21:28:54.616Z,101602.66
2023-04-20T21:31:26.951Z,101607.41
2023-04-20T21:33:59.615Z,101608.63
2023-04-20T21:36:34.744Z,101608.94
2023-04-20T21:39:07.737Z,101611.97
2023-04-20T21:41:39.947Z,101603.88
2023-04-20T21:44:12.746Z,101604.03
2023-04-20T21:46:44.886Z,101606.94
2023-04-20T21:49:17.962Z,101607.25
2023-04-20T21:51:53.813Z,101604.03
2023-04-20T21:54:26.706Z,101601.69
2023-04-20T21:56:58.895Z,101609.19
2023-04-20T21:59:31.495Z,101610.06
2023-04-20T22:02:04.062Z,101609.19
2023-04-20T22:04:54.475Z,101608.88
2023-04-20T22:07:30.533Z,101602.44
2023-04-20T22:10:30.548Z,101615.78
2023-04-20T22:13:04.175Z,101613.72
2023-04-20T22:15:37.493Z,101616.09
2023-04-20T22:18:11.852Z,101617.78
2023-04-20T22:20:44.372Z,101618.19
2023-04-20T22:23:19.933Z,101615.22
2023-04-20T22:25:52.175Z,101616.53
2023-04-20T22:28:25.142Z,101611.38
2023-04-20T22:30:57.622Z,101620.44
2023-04-20T22:33:31.351Z,101618.38
2023-04-20T22:36:03.853Z,101624.44
2023-04-20T22:38:41.688Z,101621.59
2023-04-20T22:41:17.182Z,101613.97
2023-04-20T22:43:52.420Z,101618.56
2023-04-20T22:46:24.969Z,101622.56
2023-04-20T22:48:57.785Z,101630.75
2023-04-20T22:51:30.416Z,101618.97
2023-04-20T22:54:05.856Z,101618.41
2023-04-20T22:56:38.580Z,101616.50
2023-04-20T22:59:11.496Z,101620.91
2023-04-20T23:01:43.975Z,101627.28
2023-04-20T23:04:16.917Z,101624.28
2023-04-20T23:06:49.494Z,101633.59
2023-04-20T23:09:24.937Z,101622.56
2023-04-20T23:11:57.346Z,101626.66
2023-04-20T23:14:30.742Z,101630.09
2023-04-20T23:17:03.334Z,101623.75
2023-04-20T23:19:36.303Z,101634.56
2023-04-20T23:22:10.943Z,101621.56
2023-04-20T23:24:46.332Z,101626.81
2023-04-20T23:27:18.935Z,101619.59
2023-04-20T23:29:51.493Z,101621.34
2023-04-20T23:32:25.118Z,101621.03
2023-04-20T23:34:57.704Z,101624.38
2023-04-20T23:37:30.221Z,101613.97
2023-04-20T23:40:07.532Z,101619.47
2023-04-20T23:42:40.711Z,101617.22
2023-04-20T23:45:14.496Z,101627.41
2023-04-20T23:47:52.874Z,101625.81
2023-04-20T23:50:25.579Z,101625.97
2023-04-20T23:52:58.156Z,101640.94
2023-04-20T23:55:33.492Z,101620.22
2023-04-20T23:58:05.854Z,101630.31
